createdAt,value
2022-10-10T00:01:56.102Z,8.50
2022-10-10T00:04:24.532Z,8.17
2022-10-10T00:06:54.641Z,8.30
2022-10-10T00:09:22.995Z,10.37
2022-10-10T00:11:51.240Z,9.47
2022-10-10T00:14:19.583Z,7.67
2022-10-10T00:16:47.912Z,10.17
2022-10-10T00:19:16.243Z,8.33
2022-10-10T00:21:44.589Z,8.33
2022-10-10T00:24:14.643Z,7.63
2022-10-10T00:26:42.987Z,10.20
2022-10-10T00:29:11.254Z,7.30
2022-10-10T00:31:39.977Z,9.37
2022-10-10T00:34:08.574Z,10.07
2022-10-10T00:39:20.984Z,8.10
2022-10-10T00:41:49.326Z,9.57
2022-10-10T00:44:18.108Z,8.10
2022-10-10T00:46:46.403Z,8.70
2022-10-10T00:49:18.123Z,9.63
2022-10-10T00:51:48.033Z,8.10
2022-10-10T00:54:19.052Z,8.13
2022-10-10T00:56:52.174Z,9.63
2022-10-10T00:59:22.086Z,8.77
2022-10-10T01:01:50.326Z,9.33
2022-10-10T01:04:33.861Z,8.13
2022-10-10T01:07:04.666Z,8.53
2022-10-10T01:09:34.197Z,9.80
2022-10-10T01:12:15.511Z,9.23
2022-10-10T01:14:51.498Z,8.50
2022-10-10T01:17:27.308Z,7.30
2022-10-10T01:20:27.543Z,9.23
2022-10-10T01:23:22.212Z,8.87
2022-10-10T01:26:02.403Z,8.40
2022-10-10T01:28:40.993Z,9.57
2022-10-10T01:31:11.805Z,9.97
2022-10-10T01:33:51.472Z,8.33
2022-10-10T01:36:26.575Z,10.00
2022-10-10T01:39:03.616Z,9.17
2022-10-10T01:41:34.801Z,8.33
2022-10-10T01:44:04.465Z,7.57
2022-10-10T01:46:33.772Z,9.27
2022-10-10T01:49:03.095Z,8.27
2022-10-10T01:51:50.410Z,8.53
2022-10-10T01:54:36.116Z,7.93
2022-10-10T01:57:19.648Z,8.17
2022-10-10T02:00:03.280Z,9.33
2022-10-10T02:02:41.810Z,9.73
2022-10-10T02:05:19.534Z,7.50
2022-10-10T02:07:53.894Z,7.70
2022-10-10T02:10:25.810Z,7.50
2022-10-10T02:12:56.990Z,11.23
2022-10-10T02:15:30.096Z,11.17
2022-10-10T02:17:59.026Z,10.40
2022-10-10T02:20:29.237Z,8.80
2022-10-10T02:22:57.795Z,8.80
2022-10-10T02:25:30.817Z,9.30
2022-10-10T02:28:08.555Z,9.93
2022-10-10T02:30:42.149Z,9.37
2022-10-10T02:33:10.613Z,8.87
2022-10-10T02:35:43.356Z,9.83
2022-10-10T02:38:15.603Z,10.43
2022-10-10T02:40:46.935Z,8.90
2022-10-10T02:43:17.527Z,10.60
2022-10-10T02:45:47.529Z,9.07
2022-10-10T02:48:15.833Z,8.57
2022-10-10T02:50:44.843Z,9.37
2022-10-10T02:53:13.101Z,8.97
2022-10-10T02:55:41.313Z,7.87
2022-10-10T02:58:10.438Z,8.53
2022-10-10T03:00:38.785Z,8.93
2022-10-10T03:03:10.308Z,8.57
2022-10-10T03:05:40.990Z,8.53
2022-10-10T03:08:11.783Z,8.63
2022-10-10T03:10:40.410Z,8.57
2022-10-10T03:13:08.980Z,9.47
2022-10-10T03:15:40.053Z,10.57
2022-10-10T03:18:10.156Z,10.17
2022-10-10T03:20:38.836Z,9.50
2022-10-10T03:23:07.376Z,9.70
2022-10-10T03:25:35.878Z,10.83
2022-10-10T03:28:04.238Z,9.27
2022-10-10T03:30:32.533Z,10.67
2022-10-10T03:33:00.909Z,10.57
2022-10-10T03:35:30.709Z,9.93
2022-10-10T03:37:59.625Z,9.67
2022-10-10T03:40:29.281Z,10.60
2022-10-10T03:42:58.251Z,10.10
2022-10-10T03:45:26.580Z,10.10
2022-10-10T03:47:54.775Z,9.77
2022-10-10T03:50:23.277Z,9.30
2022-10-10T03:52:53.173Z,8.60
2022-10-10T03:55:21.714Z,7.47
2022-10-10T03:57:49.978Z,8.00
2022-10-10T04:00:18.393Z,8.47
2022-10-10T04:02:46.827Z,8.50
2022-10-10T04:05:15.063Z,8.63
2022-10-10T04:07:43.333Z,10.60
2022-10-10T04:10:13.026Z,9.67
2022-10-10T04:12:41.322Z,11.40
2022-10-10T04:15:11.205Z,15.93
2022-10-10T04:17:41.292Z,14.77
2022-10-10T04:20:10.763Z,12.17
2022-10-10T04:22:39.135Z,15.63
2022-10-10T04:25:07.708Z,19.83
2022-10-10T04:27:39.740Z,17.03
2022-10-10T04:30:09.353Z,17.20
2022-10-10T04:32:38.162Z,22.03
2022-10-10T04:35:07.900Z,23.43
2022-10-10T04:37:39.649Z,21.77
2022-10-10T04:40:09.952Z,34.73
2022-10-10T04:42:40.087Z,29.13
2022-10-10T04:45:09.666Z,29.60
2022-10-10T04:47:38.030Z,37.77
2022-10-10T04:50:07.452Z,32.73
2022-10-10T04:52:35.977Z,21.73
2022-10-10T04:55:04.676Z,20.60
2022-10-10T04:57:33.175Z,25.73
2022-10-10T05:00:23.267Z,27.13
2022-10-10T05:02:51.956Z,25.10
2022-10-10T05:05:20.509Z,24.27
2022-10-10T05:08:13.640Z,34.80
2022-10-10T05:10:42.006Z,27.77
2022-10-10T05:13:25.154Z,28.17
2022-10-10T05:15:54.892Z,26.63
2022-10-10T05:18:23.474Z,31.00
2022-10-10T05:20:51.739Z,30.87
2022-10-10T05:23:20.378Z,22.33
2022-10-10T05:25:50.741Z,24.40
2022-10-10T05:28:19.216Z,26.47
2022-10-10T05:30:47.610Z,24.90
2022-10-10T05:33:19.825Z,36.60
2022-10-10T05:35:48.339Z,29.40
2022-10-10T05:38:16.636Z,22.20
2022-10-10T05:40:45.438Z,25.20
2022-10-10T05:43:13.808Z,27.57
2022-10-10T05:45:44.380Z,28.70
2022-10-10T05:48:32.295Z,25.07
2022-10-10T05:51:21.201Z,24.30
2022-10-10T05:54:13.006Z,23.23
2022-10-10T05:57:16.231Z,23.73
2022-10-10T06:00:30.235Z,30.60
2022-10-10T06:03:09.078Z,36.03
2022-10-10T06:05:53.759Z,31.73
2022-10-10T06:08:39.808Z,34.23
2022-10-10T06:11:12.195Z,25.90
2022-10-10T06:13:54.172Z,32.40
2022-10-10T06:16:41.332Z,38.90
2022-10-10T06:19:17.796Z,28.37
2022-10-10T06:22:01.383Z,28.90
2022-10-10T06:24:40.633Z,28.07
2022-10-10T06:27:31.802Z,30.33
2022-10-10T06:30:10.552Z,27.37
2022-10-10T06:37:02.017Z,23.70
2022-10-10T06:39:49.206Z,25.53
2022-10-10T06:42:47.576Z,26.37
2022-10-10T06:46:08.217Z,21.37
2022-10-10T06:48:34.769Z,25.90
2022-10-10T06:51:05.154Z,21.63
2022-10-10T06:53:34.885Z,25.60
2022-10-10T06:56:05.857Z,21.23
2022-10-10T06:58:34.961Z,27.10
2022-10-10T07:01:05.517Z,27.53
2022-10-10T07:03:35.307Z,32.90
2022-10-10T07:06:04.684Z,27.43
2022-10-10T07:08:34.642Z,25.27
2022-10-10T07:11:04.633Z,22.53
2022-10-10T07:13:34.666Z,22.53
2022-10-10T07:16:07.478Z,21.53
2022-10-10T07:19:10.071Z,20.97
2022-10-10T07:21:38.923Z,23.70
2022-10-10T07:24:15.538Z,24.27
2022-10-10T07:27:10.302Z,22.13
2022-10-10T07:29:47.834Z,20.33
2022-10-10T07:32:16.366Z,25.40
2022-10-10T07:34:46.893Z,24.43
2022-10-10T07:37:15.356Z,21.03
2022-10-10T07:39:43.750Z,20.10
2022-10-10T07:42:13.438Z,28.30
2022-10-10T07:44:41.746Z,21.97
2022-10-10T07:47:10.040Z,21.53
2022-10-10T07:49:38.408Z,32.17
2022-10-10T07:52:06.710Z,22.13
2022-10-10T07:54:35.126Z,16.07
2022-10-10T07:57:03.470Z,22.87
2022-10-10T07:59:33.206Z,19.60
2022-10-10T08:02:01.643Z,22.73
2022-10-10T08:04:30.126Z,22.83
2022-10-10T08:06:58.530Z,24.93
2022-10-10T08:09:26.975Z,23.33
2022-10-10T08:11:55.405Z,18.87
2022-10-10T08:14:24.037Z,21.00
2022-10-10T08:16:53.785Z,27.53
2022-10-10T08:19:22.122Z,19.20
2022-10-10T08:21:50.579Z,25.83
2022-10-10T08:24:19.760Z,23.07
2022-10-10T08:26:48.204Z,24.80
2022-10-10T08:29:16.828Z,27.50
2022-10-10T08:31:45.296Z,25.57
2022-10-10T08:34:15.050Z,24.87
2022-10-10T08:36:47.778Z,28.00
2022-10-10T08:39:18.246Z,21.37
2022-10-10T08:42:04.916Z,25.00
2022-10-10T08:44:40.545Z,25.93
2022-10-10T08:47:14.706Z,24.30
2022-10-10T08:49:47.399Z,20.80
2022-10-10T08:52:21.228Z,20.67
2022-10-10T08:55:04.905Z,25.97
2022-10-10T08:57:40.076Z,25.60
2022-10-10T09:00:16.716Z,31.13
2022-10-10T09:02:54.272Z,24.90
2022-10-10T09:05:36.958Z,20.27
2022-10-10T09:08:28.201Z,20.27
2022-10-10T09:10:59.609Z,23.93
2022-10-10T09:13:37.709Z,26.20
2022-10-10T09:16:13.349Z,24.07
2022-10-10T09:19:00.579Z,17.20
2022-10-10T09:21:45.750Z,21.83
2022-10-10T09:24:23.289Z,22.83
2022-10-10T09:27:01.481Z,23.57
2022-10-10T09:29:35.208Z,27.47
2022-10-10T09:32:11.357Z,19.80
2022-10-10T09:34:42.790Z,20.97
2022-10-10T09:37:29.524Z,25.30
2022-10-10T09:40:09.945Z,18.10
2022-10-10T09:42:41.267Z,15.37
2022-10-10T09:45:18.417Z,20.33
2022-10-10T09:47:48.173Z,18.13
2022-10-10T09:50:17.416Z,15.83
2022-10-10T09:52:48.261Z,18.13
2022-10-10T09:55:25.229Z,16.77
2022-10-10T09:57:55.128Z,16.30
2022-10-10T10:00:35.414Z,15.87
2022-10-10T10:03:27.976Z,13.40
2022-10-10T10:06:00.367Z,14.43
2022-10-10T10:08:42.777Z,13.83
2022-10-10T10:11:28.548Z,13.53
2022-10-10T10:13:59.730Z,15.27
2022-10-10T10:16:42.512Z,13.20
2022-10-10T10:19:35.625Z,10.43
2022-10-10T10:22:03.982Z,15.73
2022-10-10T10:24:36.542Z,13.17
2022-10-10T10:27:12.045Z,13.40
2022-10-10T10:29:47.245Z,13.97
2022-10-10T10:32:25.106Z,15.07
2022-10-10T10:35:16.321Z,16.83
2022-10-10T10:38:07.142Z,13.33
2022-10-10T10:40:41.758Z,13.17
2022-10-10T10:43:44.836Z,10.07
2022-10-10T10:46:24.359Z,11.47
2022-10-10T10:49:02.305Z,13.70
2022-10-10T10:52:03.839Z,15.00
2022-10-10T10:54:45.618Z,8.67
2022-10-10T10:57:32.856Z,14.33
2022-10-10T11:00:25.561Z,14.77
2022-10-10T11:05:15.937Z,15.53
2022-10-10T11:06:16.463Z,12.47
2022-10-10T11:08:59.048Z,17.20
2022-10-10T11:11:42.633Z,14.17
2022-10-10T11:14:24.538Z,15.80
2022-10-10T11:16:56.108Z,12.87
2022-10-10T11:19:32.944Z,13.10
2022-10-10T11:22:17.712Z,11.43
2022-10-10T11:24:51.260Z,11.80
2022-10-10T11:27:28.424Z,11.57
2022-10-10T11:30:07.372Z,12.63
2022-10-10T11:32:41.612Z,12.77
2022-10-10T11:35:22.964Z,14.77
2022-10-10T11:37:57.137Z,12.33
2022-10-10T11:40:34.602Z,12.17
2022-10-10T11:43:07.389Z,13.10
2022-10-10T11:45:47.223Z,12.33
2022-10-10T11:48:27.114Z,14.63
2022-10-10T11:51:00.698Z,12.30
2022-10-10T11:53:35.028Z,16.50
2022-10-10T11:56:13.721Z,14.40
2022-10-10T11:58:44.079Z,12.63
2022-10-10T12:01:20.540Z,16.50
2022-10-10T12:03:50.831Z,12.80
2022-10-10T12:06:23.547Z,15.87
2022-10-10T12:09:17.559Z,16.23
2022-10-10T12:11:50.805Z,13.60
2022-10-10T12:14:22.509Z,17.23
2022-10-10T12:16:53.023Z,16.67
2022-10-10T12:19:23.438Z,15.10
2022-10-10T12:21:56.579Z,16.53
2022-10-10T12:24:27.720Z,15.60
2022-10-10T12:27:29.695Z,14.47
2022-10-10T12:30:19.414Z,12.00
2022-10-10T12:32:59.405Z,13.60
2022-10-10T12:35:38.687Z,13.70
2022-10-10T12:38:18.941Z,16.27
2022-10-10T12:41:10.733Z,14.93
2022-10-10T12:43:59.366Z,15.17
2022-10-10T12:46:49.844Z,14.13
2022-10-10T12:49:25.165Z,11.77
2022-10-10T12:52:02.338Z,9.43
2022-10-10T12:54:35.122Z,14.73
2022-10-10T12:57:10.295Z,12.57
2022-10-10T12:59:39.928Z,13.77
2022-10-10T13:02:15.925Z,12.67
2022-10-10T13:04:47.525Z,12.90
2022-10-10T13:07:19.022Z,10.60
2022-10-10T13:09:51.318Z,8.90
2022-10-10T13:12:25.346Z,8.83
2022-10-10T13:14:53.774Z,8.00
2022-10-10T13:17:24.845Z,8.87
2022-10-10T13:19:56.274Z,8.60
2022-10-10T13:22:25.579Z,10.07
2022-10-10T13:24:54.477Z,7.47
2022-10-10T13:27:25.570Z,9.43
2022-10-10T13:29:55.039Z,9.50
2022-10-10T13:32:27.003Z,7.73
2022-10-10T13:35:00.123Z,10.57
2022-10-10T13:37:29.751Z,9.07
2022-10-10T13:39:58.646Z,10.43
2022-10-10T13:42:49.085Z,12.27
2022-10-10T13:45:36.446Z,7.37
2022-10-10T13:48:26.869Z,10.60
2022-10-10T13:51:14.970Z,11.93
2022-10-10T13:53:52.367Z,10.43
2022-10-10T13:56:38.395Z,10.07
2022-10-10T13:59:12.343Z,10.60
2022-10-10T14:01:42.711Z,13.50
2022-10-10T14:04:20.216Z,9.23
2022-10-10T14:06:59.687Z,13.57
2022-10-10T14:09:32.836Z,10.03
2022-10-10T14:12:03.637Z,14.43
2022-10-10T14:14:40.454Z,17.30
2022-10-10T14:17:11.007Z,13.80
2022-10-10T14:19:39.800Z,13.20
2022-10-10T14:22:09.569Z,12.33
2022-10-10T14:24:38.245Z,12.43
2022-10-10T14:27:16.095Z,12.43
2022-10-10T14:29:44.442Z,15.43
2022-10-10T14:32:13.913Z,13.27
2022-10-10T14:34:57.436Z,11.27
2022-10-10T14:37:28.878Z,13.43
2022-10-10T14:39:57.499Z,14.73
2022-10-10T14:42:26.927Z,17.70
2022-10-10T14:44:55.164Z,18.30
2022-10-10T14:47:25.543Z,14.90
2022-10-10T14:49:56.534Z,16.60
2022-10-10T14:52:26.227Z,12.67
2022-10-10T14:54:54.742Z,13.97
2022-10-10T14:57:23.255Z,16.20
2022-10-10T14:59:51.539Z,10.53
2022-10-10T15:02:21.740Z,9.63
2022-10-10T15:04:50.870Z,11.77
2022-10-10T15:07:20.019Z,12.07
2022-10-10T15:10:27.500Z,15.50
2022-10-10T15:12:41.541Z,13.67
2022-10-10T15:15:11.334Z,13.87
2022-10-10T15:17:39.774Z,14.00
2022-10-10T15:20:12.043Z,15.47
2022-10-10T15:22:40.723Z,10.23
2022-10-10T15:25:11.371Z,10.33
2022-10-10T15:30:22.252Z,10.67
2022-10-10T15:32:50.848Z,12.67
2022-10-10T15:35:21.723Z,9.00
2022-10-10T15:37:50.151Z,10.53
2022-10-10T15:40:22.505Z,15.00
2022-10-10T15:42:51.651Z,11.97
2022-10-10T15:45:43.683Z,12.60
2022-10-10T15:48:08.683Z,14.60
2022-10-10T15:50:42.214Z,11.37
2022-10-10T15:53:10.488Z,11.87
2022-10-10T15:55:43.766Z,9.27
2022-10-10T15:58:12.046Z,11.10
2022-10-10T16:00:41.502Z,10.60
2022-10-10T16:03:10.449Z,9.63
2022-10-10T16:05:42.927Z,8.40
2022-10-10T16:08:12.395Z,9.57
2022-10-10T16:10:41.909Z,9.97
2022-10-10T16:13:12.405Z,10.37
2022-10-10T16:15:40.715Z,9.70
2022-10-10T16:18:24.359Z,10.43
2022-10-10T16:20:52.695Z,8.47
2022-10-10T16:23:21.061Z,9.97
2022-10-10T16:25:49.319Z,9.07
2022-10-10T16:28:18.992Z,11.83
2022-10-10T16:30:47.293Z,8.50
2022-10-10T16:33:15.620Z,8.83
2022-10-10T16:35:44.409Z,10.33
2022-10-10T16:38:13.292Z,11.10
2022-10-10T16:40:41.578Z,10.20
2022-10-10T16:43:10.047Z,8.90
2022-10-10T16:45:44.522Z,9.03
2022-10-10T16:48:13.349Z,11.33
2022-10-10T16:50:42.552Z,9.53
2022-10-10T16:53:12.294Z,10.83
2022-10-10T16:55:41.399Z,10.70
2022-10-10T16:58:12.292Z,7.27
2022-10-10T17:00:46.994Z,8.80
2022-10-10T17:03:15.582Z,12.80
2022-10-10T17:05:44.412Z,11.43
2022-10-10T17:08:14.350Z,12.93
2022-10-10T17:10:47.346Z,10.10
2022-10-10T17:13:16.353Z,7.40
2022-10-10T17:16:34.134Z,9.80
2022-10-10T17:18:55.616Z,7.77
2022-10-10T17:21:25.773Z,8.43
2022-10-10T17:23:54.304Z,8.97
2022-10-10T17:26:23.978Z,8.53
2022-10-10T17:31:57.495Z,10.93
2022-10-10T17:34:25.894Z,7.43
2022-10-10T17:36:54.344Z,7.97
2022-10-10T17:39:22.989Z,7.87
2022-10-10T17:41:51.292Z,9.10
2022-10-10T17:44:19.793Z,9.00
2022-10-10T17:46:48.141Z,7.77
2022-10-10T17:49:18.371Z,5.80
2022-10-10T17:51:48.981Z,6.80
2022-10-10T17:54:21.594Z,9.60
2022-10-10T17:56:55.964Z,7.27
2022-10-10T17:59:24.347Z,12.13
2022-10-10T18:01:52.724Z,9.73
2022-10-10T18:04:22.379Z,12.93
2022-10-10T18:06:50.694Z,11.70
2022-10-10T18:09:19.130Z,9.77
2022-10-10T18:11:47.650Z,12.03
2022-10-10T18:14:15.995Z,11.23
2022-10-10T18:16:45.064Z,10.50
2022-10-10T18:19:13.422Z,10.47
2022-10-10T18:21:43.663Z,9.90
2022-10-10T18:24:12.485Z,11.03
2022-10-10T18:26:41.285Z,10.40
2022-10-10T18:29:09.676Z,9.67
2022-10-10T18:31:39.147Z,10.60
2022-10-10T18:34:08.443Z,11.73
2022-10-10T18:36:38.651Z,13.23
2022-10-10T18:39:23.287Z,13.10
2022-10-10T18:41:51.830Z,12.37
2022-10-10T18:44:21.163Z,14.80
2022-10-10T18:46:50.942Z,13.23
2022-10-10T18:49:19.545Z,13.33
2022-10-10T18:51:48.393Z,13.77
2022-10-10T18:54:18.705Z,13.40
2022-10-10T18:56:50.501Z,30.70
2022-10-10T18:59:21.897Z,38.33
2022-10-10T19:01:52.366Z,19.27
2022-10-10T19:04:22.059Z,20.70
2022-10-10T19:06:56.788Z,16.67
2022-10-10T19:09:26.810Z,14.27
2022-10-10T19:11:56.864Z,14.83
2022-10-10T19:14:25.404Z,17.23
2022-10-10T19:16:53.837Z,13.43
2022-10-10T19:19:22.753Z,13.20
2022-10-10T19:21:52.272Z,15.70
2022-10-10T19:24:22.379Z,16.97
2022-10-10T19:26:54.721Z,16.90
2022-10-10T19:29:25.484Z,14.60
2022-10-10T19:31:53.899Z,14.73
2022-10-10T19:34:22.529Z,20.47
2022-10-10T19:36:50.854Z,16.30
2022-10-10T19:39:19.483Z,19.30
2022-10-10T19:41:47.993Z,13.73
2022-10-10T19:44:16.243Z,13.53
2022-10-10T19:46:45.968Z,12.73
2022-10-10T19:49:14.759Z,11.77
2022-10-10T19:51:43.376Z,13.13
2022-10-10T19:54:12.134Z,17.57
2022-10-10T19:56:40.485Z,14.03
2022-10-10T19:59:09.148Z,16.20
2022-10-10T20:01:37.714Z,11.63
2022-10-10T20:04:09.445Z,12.20
2022-10-10T20:06:41.201Z,12.80
2022-10-10T20:09:10.954Z,13.90
2022-10-10T20:11:40.544Z,11.10
2022-10-10T20:14:08.874Z,14.33
2022-10-10T20:16:37.163Z,12.37
2022-10-10T20:19:06.818Z,12.30
2022-10-10T20:21:35.952Z,12.97
2022-10-10T20:24:06.914Z,11.00
2022-10-10T20:26:35.913Z,10.20
2022-10-10T20:29:05.113Z,14.13
2022-10-10T20:31:35.856Z,11.90
2022-10-10T20:34:05.944Z,15.30
2022-10-10T20:36:37.109Z,10.70
2022-10-10T20:39:08.076Z,13.23
2022-10-10T20:41:37.698Z,12.27
2022-10-10T20:44:08.119Z,11.03
2022-10-10T20:46:38.144Z,10.87
2022-10-10T20:49:09.333Z,13.27
2022-10-10T20:51:39.307Z,11.23
2022-10-10T20:54:08.263Z,10.87
2022-10-10T20:56:36.919Z,12.47
2022-10-10T20:59:05.188Z,10.10
2022-10-10T21:01:33.970Z,11.03
2022-10-10T21:04:03.282Z,10.17
2022-10-10T21:06:33.407Z,10.60
2022-10-10T21:09:06.089Z,12.33
2022-10-10T21:11:35.339Z,10.90
2022-10-10T21:14:04.116Z,13.37
2022-10-10T21:16:35.072Z,12.10
2022-10-10T21:19:03.919Z,12.27
2022-10-10T21:21:35.021Z,8.90
2022-10-10T21:24:07.289Z,8.87
2022-10-10T21:26:35.899Z,10.03
2022-10-10T21:29:04.493Z,8.70
2022-10-10T21:31:35.156Z,12.43
2022-10-10T21:34:04.918Z,10.93
2022-10-10T21:36:34.796Z,10.40
2022-10-10T21:39:06.836Z,8.60
2022-10-10T21:41:35.926Z,15.47
2022-10-10T21:44:04.496Z,11.97
2022-10-10T21:46:36.576Z,9.20
2022-10-10T21:49:07.966Z,10.47
2022-10-10T21:51:38.295Z,10.50
2022-10-10T21:54:08.640Z,10.17
2022-10-10T21:56:37.829Z,12.77
2022-10-10T21:59:06.728Z,13.30
2022-10-10T22:01:37.290Z,8.47
2022-10-10T22:04:07.031Z,11.47
2022-10-10T22:06:35.531Z,10.53
2022-10-10T22:09:04.685Z,9.63
2022-10-10T22:11:35.371Z,10.27
2022-10-10T22:14:04.364Z,10.67
2022-10-10T22:16:33.109Z,9.60
2022-10-10T22:19:02.085Z,11.10
2022-10-10T22:21:32.549Z,9.27
2022-10-10T22:24:02.571Z,10.73
2022-10-10T22:26:31.998Z,12.40
2022-10-10T22:29:01.881Z,10.53
2022-10-10T22:31:30.466Z,11.87
2022-10-10T22:33:59.098Z,14.43
2022-10-10T22:36:27.829Z,12.07
2022-10-10T22:38:56.194Z,9.90
2022-10-10T22:41:24.410Z,10.83
2022-10-10T22:43:53.471Z,10.53
2022-10-10T22:46:25.142Z,9.03
2022-10-10T22:48:53.831Z,9.77
2022-10-10T22:51:22.397Z,10.77
2022-10-10T22:53:50.750Z,11.93
2022-10-10T22:56:21.341Z,10.87
2022-10-10T22:58:51.434Z,11.77
2022-10-10T23:01:25.877Z,11.30
2022-10-10T23:04:13.230Z,13.83
2022-10-10T23:06:41.628Z,11.93
2022-10-10T23:09:14.095Z,8.80
2022-10-10T23:11:42.370Z,14.43
2022-10-10T23:14:10.691Z,11.10
2022-10-10T23:16:41.009Z,11.27
2022-10-10T23:19:09.268Z,12.80
2022-10-10T23:21:37.714Z,10.53
2022-10-10T23:24:06.837Z,13.17
2022-10-10T23:26:35.146Z,10.00
2022-10-10T23:29:03.730Z,11.50
2022-10-10T23:31:32.777Z,11.23
2022-10-10T23:34:02.642Z,13.10
2022-10-10T23:36:30.912Z,11.27
2022-10-10T23:38:59.320Z,13.17
2022-10-10T23:41:27.577Z,14.67
2022-10-10T23:43:55.796Z,11.40
2022-10-10T23:46:24.077Z,9.70
2022-10-10T23:48:52.628Z,11.20
2022-10-10T23:51:22.242Z,10.50
2022-10-10T23:53:50.473Z,10.77
2022-10-10T23:56:19.439Z,8.77
2022-10-10T23:58:48.120Z,12.53
